Time;durP1;ratioP1;P1;durP2;ratioP2;P2;SDS_P1;SDS_P2;PMS_P1;PMS_P2;Temp;Humidity;BMP_temperature;BMP_pressure;BME280_temperature;BME280_humidity;BME280_pressure;Samples;Min_cycle;Max_cycle;Signal;HPM_P1;HPM_P2
2022/06/04 00:00:33;;;;;;;6.80;4.35;;;21.30;50.60;;;;;;5015757;28;20092;-47
2022/06/04 00:03:01;;;;;;;7.28;4.43;;;21.30;50.60;;;;;;5020392;28;20053;-47
2022/06/04 00:05:30;;;;;;;5.03;3.97;;;21.30;50.60;;;;;;5019219;28;20072;-51
2022/06/04 00:08:00;;;;;;;5.68;4.18;;;21.30;50.80;;;;;;5021158;28;20058;-46
2022/06/04 00:16:14;;;;;;;4.20;3.78;;;21.20;50.90;;;;;;4981093;28;20054;-46
2022/06/04 00:18:43;;;;;;;6.57;4.57;;;21.10;51.00;;;;;;5012583;28;20056;-48
2022/06/04 00:21:12;;;;;;;5.68;4.40;;;21.10;51.20;;;;;;5017286;28;22165;-53
2022/06/04 00:23:41;;;;;;;9.10;5.38;;;21.10;51.50;;;;;;5022687;28;20060;-50
2022/06/04 00:26:10;;;;;;;11.98;6.88;;;21.10;51.50;;;;;;5021086;28;20064;-47
2022/06/04 00:28:39;;;;;;;9.02;6.32;;;21.00;51.60;;;;;;5022924;28;20066;-47
2022/06/04 00:31:07;;;;;;;11.88;6.00;;;21.00;51.80;;;;;;5019581;28;20058;-48
2022/06/04 00:33:34;;;;;;;9.15;5.97;;;21.00;51.80;;;;;;5022380;28;20045;-46
2022/06/04 00:36:02;;;;;;;6.90;5.22;;;20.90;51.80;;;;;;5020925;28;20064;-47
2022/06/04 00:38:31;;;;;;;9.85;6.05;;;20.90;51.90;;;;;;5022551;28;20049;-51
2022/06/04 00:41:07;;;;;;;8.10;4.78;;;20.90;51.90;;;;;;5019508;28;20049;-47
2022/06/04 00:44:00;;;;;;;7.55;5.03;;;20.90;52.00;;;;;;5021736;28;20045;-49
2022/06/04 00:47:07;;;;;;;8.45;5.50;;;20.80;52.00;;;;;;5019939;28;20054;-48
2022/06/04 00:49:34;;;;;;;6.35;4.70;;;20.80;52.10;;;;;;5012418;28;20492;-50
2022/06/04 00:52:04;;;;;;;7.82;4.88;;;20.80;52.00;;;;;;5017796;28;20076;-49
2022/06/04 00:54:31;;;;;;;8.23;5.03;;;20.70;52.00;;;;;;5020701;28;20528;-47
2022/06/04 00:57:10;;;;;;;6.45;4.50;;;20.70;52.10;;;;;;5021739;28;20535;-48
2022/06/04 00:59:49;;;;;;;6.75;4.90;;;20.60;52.30;;;;;;5020780;28;20053;-54
2022/06/04 01:02:25;;;;;;;6.38;4.60;;;20.60;52.30;;;;;;5020671;28;20064;-47
2022/06/04 01:05:08;;;;;;;7.85;4.40;;;20.60;52.30;;;;;;5019901;28;20057;-48
2022/06/04 01:07:57;;;;;;;6.07;4.22;;;20.60;52.30;;;;;;5021494;28;20054;-46
2022/06/04 01:10:39;;;;;;;5.68;3.92;;;20.50;52.30;;;;;;5019891;28;20049;-47
2022/06/04 01:13:26;;;;;;;6.63;4.28;;;20.50;52.30;;;;;;5020662;28;20053;-50
2022/06/04 01:16:04;;;;;;;5.75;3.85;;;20.50;52.30;;;;;;5014374;28;20057;-52
2022/06/04 01:18:41;;;;;;;4.47;3.47;;;20.40;52.40;;;;;;5022259;28;20456;-46
2022/06/04 01:21:19;;;;;;;4.45;3.90;;;20.40;52.40;;;;;;5018698;28;20064;-48
2022/06/04 01:24:29;;;;;;;4.57;3.50;;;20.40;52.50;;;;;;5021486;28;20058;-47
2022/06/04 01:27:16;;;;;;;7.93;4.47;;;20.30;52.60;;;;;;5021548;28;20496;-48
2022/06/04 01:29:55;;;;;;;5.35;3.63;;;20.30;52.70;;;;;;5016169;28;20053;-48
2022/06/04 01:32:27;;;;;;;4.57;3.80;;;20.30;52.70;;;;;;5015551;28;20052;-47
2022/06/04 01:35:03;;;;;;;6.35;4.18;;;20.30;52.70;;;;;;5016442;28;20481;-49
2022/06/04 01:37:35;;;;;;;7.05;4.00;;;20.20;52.80;;;;;;5018280;28;20607;-48
2022/06/04 01:42:53;;;;;;;5.22;3.97;;;20.20;52.80;;;;;;5027754;28;20056;-50
2022/06/04 01:45:24;;;;;;;4.43;4.03;;;20.10;52.90;;;;;;5017685;28;20046;-49
2022/06/04 01:47:54;;;;;;;6.35;3.80;;;20.10;53.00;;;;;;5017693;28;20052;-46
2022/06/04 01:50:30;;;;;;;5.78;3.60;;;20.10;53.00;;;;;;5019325;28;20057;-48
2022/06/04 01:53:00;;;;;;;7.00;4.43;;;20.00;53.20;;;;;;5021334;28;20049;-47
2022/06/04 01:55:38;;;;;;;7.72;5.47;;;20.00;53.10;;;;;;5021401;28;20060;-50
2022/06/04 01:58:12;;;;;;;9.60;5.43;;;20.00;53.40;;;;;;5020801;28;20045;-48
2022/06/04 02:00:46;;;;;;;8.57;5.45;;;19.90;53.70;;;;;;5019374;28;20452;-47
2022/06/04 02:03:17;;;;;;;9.23;5.50;;;19.90;53.90;;;;;;5016529;28;20049;-50
2022/06/04 02:05:49;;;;;;;8.43;5.63;;;19.80;53.90;;;;;;5010787;28;20049;-52
2022/06/04 02:08:23;;;;;;;9.57;5.57;;;19.70;54.10;;;;;;5019257;28;20060;-50
2022/06/04 02:10:55;;;;;;;8.18;5.95;;;19.70;54.50;;;;;;5020211;28;20273;-49
2022/06/04 02:13:24;;;;;;;6.40;5.70;;;19.60;54.60;;;;;;5021409;28;20404;-48
2022/06/04 02:15:57;;;;;;;9.30;6.50;;;19.50;54.80;;;;;;5018643;28;20511;-46
2022/06/04 02:18:25;;;;;;;6.63;5.73;;;19.40;55.00;;;;;;5019223;28;20046;-50
2022/06/04 02:20:53;;;;;;;8.02;5.68;;;19.40;55.00;;;;;;5015990;28;20049;-49
2022/06/04 02:23:21;;;;;;;9.48;5.47;;;19.30;55.00;;;;;;5020893;28;20425;-47
2022/06/04 02:25:49;;;;;;;8.77;5.68;;;19.30;55.10;;;;;;5017172;28;20045;-49
2022/06/04 02:28:16;;;;;;;5.65;4.53;;;19.20;55.10;;;;;;5020360;28;20489;-47
2022/06/04 02:30:55;;;;;;;6.68;4.80;;;19.20;55.10;;;;;;5019071;28;20489;-48
2022/06/04 02:33:33;;;;;;;6.38;4.93;;;19.20;55.30;;;;;;5019912;28;20515;-50
2022/06/04 02:36:05;;;;;;;6.13;4.85;;;19.10;55.30;;;;;;5018109;28;20050;-50
2022/06/04 02:38:40;;;;;;;7.00;4.70;;;19.10;55.20;;;;;;5017220;28;20045;-48
2022/06/04 02:41:16;;;;;;;5.57;5.07;;;19.10;55.20;;;;;;5018856;28;20064;-47
2022/06/04 02:43:46;;;;;;;6.55;4.30;;;19.10;55.20;;;;;;5018304;28;20068;-48
2022/06/04 02:46:22;;;;;;;8.52;5.38;;;19.10;55.20;;;;;;5017148;28;20053;-49
2022/06/04 02:48:58;;;;;;;9.60;4.55;;;19.10;55.30;;;;;;5017337;28;20057;-46
2022/06/04 02:51:31;;;;;;;4.68;4.07;;;19.10;55.30;;;;;;5015656;28;20053;-50
2022/06/04 02:54:02;;;;;;;4.93;4.30;;;19.10;55.30;;;;;;5018853;28;20421;-46
2022/06/04 02:56:33;;;;;;;5.72;4.68;;;19.10;55.40;;;;;;5020582;28;20132;-48
2022/06/04 02:59:04;;;;;;;5.13;4.43;;;19.10;55.50;;;;;;5017087;28;20060;-49
2022/06/04 03:01:39;;;;;;;6.97;5.00;;;19.10;55.40;;;;;;5004145;28;20069;-47
2022/06/04 03:04:07;;;;;;;;;;;19.10;55.50;;;;;;5018567;28;20162;-48
2022/06/04 03:06:34;;;;;;;7.82;4.78;;;19.10;55.20;;;;;;5014401;28;19921;-49
2022/06/04 03:09:05;;;;;;;6.63;4.60;;;19.10;55.20;;;;;;5019510;28;20049;-48
2022/06/04 03:11:36;;;;;;;7.25;4.80;;;19.10;55.30;;;;;;5019550;28;20072;-48
2022/06/04 03:14:03;;;;;;;7.90;4.95;;;19.00;55.40;;;;;;5018645;28;20054;-48
2022/06/04 03:16:36;;;;;;;5.72;4.80;;;19.00;55.50;;;;;;5016404;28;20060;-50
2022/06/04 03:19:05;;;;;;;5.93;5.00;;;19.00;55.70;;;;;;5018816;28;20504;-48
2022/06/04 03:21:32;;;;;;;6.85;4.95;;;19.00;55.60;;;;;;5016335;28;20049;-51
2022/06/04 03:24:00;;;;;;;6.20;4.75;;;19.00;55.60;;;;;;5018529;28;20060;-48
2022/06/04 03:26:27;;;;;;;5.28;4.75;;;19.00;55.60;;;;;;5019276;28;20076;-47
2022/06/04 03:28:55;;;;;;;6.78;5.35;;;19.00;55.70;;;;;;5017205;28;20053;-48
2022/06/04 03:31:22;;;;;;;9.07;5.57;;;19.00;55.80;;;;;;5015034;28;20064;-48
2022/06/04 03:33:51;;;;;;;6.20;4.88;;;19.00;55.80;;;;;;5020208;28;20134;-51
2022/06/04 03:36:19;;;;;;;5.85;4.75;;;19.00;55.90;;;;;;5018813;28;20054;-47
2022/06/04 03:38:46;;;;;;;8.20;5.28;;;18.90;55.80;;;;;;5020599;28;20088;-47
2022/06/04 03:41:13;;;;;;;7.25;5.85;;;18.90;55.90;;;;;;5021655;28;20627;-49
2022/06/04 03:43:41;;;;;;;7.63;5.50;;;18.90;56.10;;;;;;5023847;28;20060;-51
2022/06/04 03:46:09;;;;;;;6.28;4.95;;;18.90;56.20;;;;;;5021892;28;20052;-51
2022/06/04 03:48:36;;;;;;;7.13;5.78;;;18.90;56.30;;;;;;5024041;28;20493;-48
2022/06/04 03:51:05;;;;;;;7.40;5.47;;;18.90;56.30;;;;;;5019583;28;20056;-48
2022/06/04 03:53:33;;;;;;;6.43;5.18;;;18.90;56.50;;;;;;5025261;28;20053;-47
2022/06/04 03:56:00;;;;;;;7.07;5.18;;;18.90;56.40;;;;;;5022350;28;20050;-47
2022/06/04 03:58:30;;;;;;;4.88;4.35;;;18.90;56.50;;;;;;5019024;28;20076;-50
2022/06/04 04:00:57;;;;;;;8.02;5.53;;;18.90;56.60;;;;;;5014413;28;20053;-47
2022/06/04 04:03:27;;;;;;;9.10;5.55;;;18.80;56.60;;;;;;5024915;28;20057;-49
2022/06/04 04:05:56;;;;;;;6.15;4.70;;;18.90;56.80;;;;;;5016397;28;20057;-49
2022/06/04 04:08:26;;;;;;;5.57;4.97;;;18.90;57.30;;;;;;5022895;28;20052;-46
2022/06/04 04:10:54;;;;;;;8.43;5.00;;;18.90;56.90;;;;;;5022777;28;20582;-49
2022/06/04 04:13:21;;;;;;;7.47;5.53;;;18.90;56.90;;;;;;5025032;28;20530;-46
2022/06/04 04:15:49;;;;;;;7.05;5.43;;;18.90;56.90;;;;;;5017534;28;20092;-51
2022/06/04 04:18:16;;;;;;;5.78;4.65;;;18.90;56.90;;;;;;5012431;28;20512;-51
2022/06/04 04:20:47;;;;;;;8.45;5.80;;;19.00;57.00;;;;;;5020620;28;20053;-51
2022/06/04 04:23:15;;;;;;;6.70;5.25;;;19.00;57.10;;;;;;5024385;28;20060;-47
2022/06/04 04:25:44;;;;;;;8.52;6.25;;;19.00;57.10;;;;;;5022401;28;20652;-47
2022/06/04 04:28:11;;;;;;;6.63;5.32;;;19.00;57.30;;;;;;5022719;28;20501;-50
2022/06/04 04:30:39;;;;;;;5.57;4.85;;;19.00;57.10;;;;;;5020348;28;20053;-49
2022/06/04 04:33:07;;;;;;;5.63;4.90;;;19.00;57.10;;;;;;5020175;28;20053;-48
2022/06/04 04:35:36;;;;;;;6.72;4.47;;;19.00;57.10;;;;;;5021941;28;20420;-47
2022/06/04 04:38:05;;;;;;;4.75;4.35;;;19.00;57.00;;;;;;5022491;28;20060;-47
2022/06/04 04:40:32;;;;;;;6.32;4.55;;;19.10;56.90;;;;;;5021984;28;20065;-47
2022/06/04 04:43:01;;;;;;;7.30;4.55;;;19.10;56.80;;;;;;5019602;28;20058;-47
2022/06/04 04:45:30;;;;;;;7.55;4.60;;;19.10;56.90;;;;;;5019490;28;20041;-47
2022/06/04 04:47:57;;;;;;;4.75;4.18;;;19.10;56.90;;;;;;5018223;28;20060;-48
2022/06/04 04:50:27;;;;;;;6.60;4.68;;;19.10;56.80;;;;;;5018666;28;20489;-53
2022/06/04 04:52:55;;;;;;;6.95;5.00;;;19.10;56.90;;;;;;5021437;28;20062;-48
2022/06/04 04:55:23;;;;;;;8.18;4.68;;;19.10;57.00;;;;;;5024026;28;20062;-49
2022/06/04 04:57:50;;;;;;;8.57;5.88;;;19.10;57.10;;;;;;5022655;28;20061;-49
2022/06/04 05:00:20;;;;;;;7.88;6.00;;;19.10;57.50;;;;;;5018281;28;20045;-50
2022/06/04 05:02:50;;;;;;;9.00;6.25;;;19.10;57.50;;;;;;5018736;28;20508;-48
2022/06/04 05:05:18;;;;;;;8.30;5.78;;;19.10;57.40;;;;;;5019571;28;20053;-46
2022/06/04 05:07:45;;;;;;;6.72;5.32;;;19.00;57.40;;;;;;5021865;28;20064;-49
2022/06/04 05:10:15;;;;;;;6.45;5.10;;;19.00;57.50;;;;;;5022128;28;20073;-48
2022/06/04 05:12:42;;;;;;;9.20;5.75;;;19.00;57.70;;;;;;5020157;28;20061;-51
2022/06/04 05:15:11;;;;;;;7.78;6.15;;;19.00;58.00;;;;;;5021563;28;20096;-47
2022/06/04 05:17:41;;;;;;;7.40;5.50;;;19.10;58.40;;;;;;5023664;28;20054;-48
2022/06/04 05:20:09;;;;;;;5.63;4.80;;;19.10;58.60;;;;;;5019327;28;20057;-47
2022/06/04 05:22:37;;;;;;;7.40;5.93;;;19.20;58.60;;;;;;5020538;28;20057;-46
2022/06/04 05:25:06;;;;;;;5.43;4.78;;;19.20;58.30;;;;;;5020918;28;21096;-47
2022/06/04 05:27:33;;;;;;;9.13;7.05;;;19.30;58.10;;;;;;5018221;28;20062;-52
2022/06/04 05:30:01;;;;;;;8.52;6.68;;;19.30;58.60;;;;;;5019929;28;20432;-49
2022/06/04 05:32:29;;;;;;;10.98;5.70;;;19.30;58.50;;;;;;5015750;28;20508;-49
2022/06/04 05:34:57;;;;;;;10.02;6.65;;;19.40;58.60;;;;;;5020369;28;20069;-47
2022/06/04 05:37:25;;;;;;;6.65;5.90;;;19.40;58.20;;;;;;5020964;28;20054;-48
2022/06/04 05:39:52;;;;;;;6.32;5.20;;;19.50;58.10;;;;;;5020496;28;20524;-48
2022/06/04 05:42:20;;;;;;;8.18;5.82;;;19.50;58.20;;;;;;5017621;28;20060;-47
2022/06/04 05:44:48;;;;;;;7.82;6.35;;;19.50;58.70;;;;;;5013062;28;20053;-47
2022/06/04 05:47:15;;;;;;;9.27;6.40;;;19.60;59.00;;;;;;5016414;28;20049;-47
2022/06/04 05:49:43;;;;;;;8.48;6.70;;;19.70;59.00;;;;;;5019475;28;20053;-49
2022/06/04 05:52:13;;;;;;;9.48;6.75;;;19.70;59.20;;;;;;5016856;28;20049;-47
2022/06/04 05:54:41;;;;;;;8.10;5.35;;;19.80;59.20;;;;;;5021254;28;20049;-48
2022/06/04 05:57:08;;;;;;;6.20;5.60;;;19.90;59.10;;;;;;5021872;28;20092;-49
2022/06/04 05:59:36;;;;;;;9.73;5.72;;;19.90;59.00;;;;;;5018667;28;20056;-50
2022/06/04 06:02:04;;;;;;;7.00;5.70;;;20.00;59.00;;;;;;5009648;28;20049;-48
2022/06/04 06:04:31;;;;;;;6.93;5.20;;;20.10;58.90;;;;;;5018791;28;20053;-48
2022/06/04 06:07:00;;;;;;;9.88;6.65;;;20.20;58.70;;;;;;5018707;28;20057;-46
2022/06/04 06:09:29;;;;;;;6.38;5.55;;;20.20;58.80;;;;;;5021652;28;20042;-47
2022/06/04 06:11:58;;;;;;;8.05;6.10;;;20.30;58.80;;;;;;5021837;28;20060;-48
2022/06/04 06:14:28;;;;;;;9.52;6.50;;;20.40;58.60;;;;;;5017660;28;20054;-47
2022/06/04 06:16:56;;;;;;;8.57;7.40;;;20.50;58.40;;;;;;5013140;28;20531;-48
2022/06/04 06:19:24;;;;;;;9.18;7.75;;;20.50;58.10;;;;;;5018463;28;20053;-49
2022/06/04 06:21:52;;;;;;;9.63;7.63;;;20.50;57.60;;;;;;5020600;28;20054;-48
2022/06/04 06:24:22;;;;;;;11.60;7.55;;;20.60;57.30;;;;;;5021865;28;20056;-48
2022/06/04 06:26:54;;;;;;;11.02;8.60;;;20.60;57.30;;;;;;5016286;28;20076;-47
2022/06/04 06:29:24;;;;;;;9.10;7.85;;;20.50;56.90;;;;;;5019701;28;20049;-53
2022/06/04 06:31:52;;;;;;;11.20;8.15;;;20.60;56.10;;;;;;5019171;28;20053;-47
2022/06/04 06:34:21;;;;;;;12.30;8.80;;;20.50;55.90;;;;;;5019261;28;20054;-47
2022/06/04 06:36:49;;;;;;;12.43;8.05;;;20.50;55.70;;;;;;5012441;28;20049;-51
2022/06/04 06:39:16;;;;;;;9.07;7.10;;;20.50;56.10;;;;;;5021445;28;20060;-51
2022/06/04 06:41:44;;;;;;;9.65;7.65;;;20.50;56.20;;;;;;5013342;28;20050;-47
2022/06/04 06:44:13;;;;;;;9.95;7.38;;;20.40;56.00;;;;;;5017374;28;20052;-48
2022/06/04 06:46:43;;;;;;;10.82;7.78;;;20.40;56.00;;;;;;5015295;28;20050;-49
2022/06/04 06:49:17;;;;;;;10.55;7.60;;;20.30;56.10;;;;;;5019070;28;20057;-53
2022/06/04 06:51:47;;;;;;;13.02;7.43;;;20.40;56.60;;;;;;5019348;28;20088;-51
2022/06/04 06:54:16;;;;;;;11.38;7.65;;;20.40;56.30;;;;;;5020532;28;20057;-51
2022/06/04 06:56:45;;;;;;;10.52;8.40;;;20.30;56.60;;;;;;5018807;28;20528;-48
2022/06/04 06:59:14;;;;;;;10.98;7.85;;;20.30;56.70;;;;;;5017129;28;20051;-47
2022/06/04 07:01:43;;;;;;;10.38;8.23;;;20.30;56.70;;;;;;5016632;28;20053;-54
2022/06/04 07:04:11;;;;;;;9.05;7.72;;;20.30;56.60;;;;;;5018028;28;20064;-50
2022/06/04 07:06:40;;;;;;;10.48;7.07;;;20.30;56.90;;;;;;5018366;28;20050;-52
2022/06/04 07:09:12;;;;;;;9.57;7.47;;;20.30;57.10;;;;;;5016937;28;20060;-50
2022/06/04 07:11:40;;;;;;;14.77;7.75;;;20.30;57.00;;;;;;5016761;28;20401;-51
2022/06/04 07:14:07;;;;;;;8.35;7.47;;;20.30;57.20;;;;;;5019569;28;20469;-48
2022/06/04 07:16:36;;;;;;;10.15;7.43;;;20.40;57.50;;;;;;5021581;28;20413;-48
2022/06/04 07:19:05;;;;;;;9.63;8.18;;;20.40;58.00;;;;;;5023324;28;20053;-58
2022/06/04 07:21:33;;;;;;;9.27;7.55;;;20.40;58.00;;;;;;5023123;28;20053;-50
2022/06/04 07:24:01;;;;;;;9.25;7.72;;;20.40;58.00;;;;;;5024031;28;20053;-49
2022/06/04 07:26:29;;;;;;;13.95;7.97;;;20.50;58.40;;;;;;5020072;28;20065;-51
2022/06/04 07:28:57;;;;;;;14.40;7.80;;;20.50;57.90;;;;;;5023775;28;20064;-48
2022/06/04 07:31:24;;;;;;;14.00;7.85;;;20.60;57.90;;;;;;5018038;28;20059;-53
2022/06/04 07:33:55;;;;;;;9.98;7.13;;;20.60;57.60;;;;;;5023585;28;20057;-48
2022/06/04 07:36:26;;;;;;;9.95;7.95;;;20.60;57.30;;;;;;5016223;28;20429;-49
2022/06/04 07:38:53;;;;;;;10.98;7.03;;;20.70;57.50;;;;;;5023790;28;20489;-52
2022/06/04 07:41:26;;;;;;;11.45;7.65;;;20.70;57.00;;;;;;5016610;28;20058;-49
2022/06/04 07:43:54;;;;;;;8.90;7.00;;;20.80;57.70;;;;;;5020613;28;20053;-47
2022/06/04 07:46:24;;;;;;;7.13;6.43;;;20.80;57.10;;;;;;5013772;28;20053;-51
2022/06/04 07:48:54;;;;;;;7.80;5.93;;;20.90;57.20;;;;;;5015749;28;20049;-50
2022/06/04 07:51:22;;;;;;;15.80;6.70;;;21.00;57.20;;;;;;5018550;28;20058;-49
2022/06/04 07:53:49;;;;;;;8.57;6.88;;;21.00;57.30;;;;;;5020073;28;20049;-50
2022/06/04 07:56:20;;;;;;;10.68;7.28;;;21.10;57.10;;;;;;5023241;28;20599;-51
2022/06/04 07:58:48;;;;;;;10.85;7.15;;;21.20;57.10;;;;;;5023758;28;20049;-50
2022/06/04 08:01:17;;;;;;;8.52;7.13;;;21.30;56.40;;;;;;5014358;28;20057;-53
2022/06/04 08:03:47;;;;;;;8.70;7.38;;;21.40;56.40;;;;;;5023194;28;20068;-47
2022/06/04 08:06:18;;;;;;;16.92;7.65;;;21.50;56.50;;;;;;5019974;28;20061;-51
2022/06/04 08:08:46;;;;;;;9.35;6.82;;;21.50;55.60;;;;;;5020260;28;20389;-47
2022/06/04 08:11:33;;;;;;;10.20;7.63;;;21.50;55.20;;;;;;5013594;28;20065;-50
2022/06/04 08:14:05;;;;;;;8.93;7.13;;;21.50;55.20;;;;;;5021261;28;20061;-49
2022/06/04 08:16:34;;;;;;;11.02;7.80;;;21.50;55.30;;;;;;5020738;28;20778;-50
2022/06/04 08:19:01;;;;;;;11.20;7.88;;;21.50;55.00;;;;;;5022140;28;20049;-50
2022/06/04 08:21:31;;;;;;;8.63;7.13;;;21.60;55.70;;;;;;5014423;28;20053;-50
2022/06/04 08:23:59;;;;;;;10.98;7.28;;;21.60;56.00;;;;;;5023668;28;20053;-53
2022/06/04 08:26:26;;;;;;;8.07;6.20;;;21.70;55.60;;;;;;5022866;28;20440;-50
2022/06/04 08:28:54;;;;;;;9.07;5.80;;;21.80;55.50;;;;;;5024921;28;20432;-49
2022/06/04 08:31:22;;;;;;;6.65;5.75;;;21.90;55.20;;;;;;5018358;28;20053;-48
2022/06/04 08:33:49;;;;;;;7.70;6.45;;;22.00;55.00;;;;;;5022482;28;20398;-51
2022/06/04 08:36:19;;;;;;;8.73;7.15;;;22.00;55.10;;;;;;5018463;28;20132;-52
2022/06/04 08:38:48;;;;;;;13.00;6.25;;;22.10;54.40;;;;;;5018191;28;20056;-51
2022/06/04 08:41:25;;;;;;;9.85;7.05;;;22.10;54.80;;;;;;5020140;28;20045;-50
2022/06/04 08:44:00;;;;;;;11.48;7.45;;;22.10;54.50;;;;;;5020904;28;20064;-48
2022/06/04 08:46:32;;;;;;;7.80;5.93;;;22.20;54.00;;;;;;5022418;28;20056;-47
2022/06/04 08:49:06;;;;;;;11.30;6.80;;;22.20;54.10;;;;;;5022030;28;20049;-52
2022/06/04 08:51:37;;;;;;;10.15;6.80;;;22.30;54.30;;;;;;5015544;28;20413;-47
2022/06/04 08:59:49;;;;;;;9.73;7.10;;;22.50;54.10;;;;;;5028381;28;20064;-50
2022/06/04 09:02:23;;;;;;;9.77;6.85;;;22.60;54.10;;;;;;5019384;28;20056;-50
2022/06/04 09:05:02;;;;;;;9.82;6.90;;;22.50;54.00;;;;;;5018672;28;20057;-47
2022/06/04 09:07:35;;;;;;;11.18;7.95;;;22.60;54.00;;;;;;5020974;28;20057;-48
2022/06/04 09:10:12;;;;;;;8.50;7.32;;;22.70;54.10;;;;;;5023255;28;20065;-48
2022/06/04 09:12:43;;;;;;;8.77;7.18;;;22.60;53.80;;;;;;5020709;28;20057;-50
2022/06/04 09:15:16;;;;;;;10.32;7.65;;;22.60;53.70;;;;;;5021901;28;20057;-52
2022/06/04 09:17:46;;;;;;;10.07;6.38;;;22.70;53.60;;;;;;5020426;28;20049;-47
2022/06/04 09:20:24;;;;;;;7.57;6.88;;;22.70;53.70;;;;;;5022246;28;20080;-51
2022/06/04 09:22:57;;;;;;;8.20;7.38;;;22.70;53.70;;;;;;5019512;28;20061;-54
2022/06/04 09:25:35;;;;;;;10.35;7.72;;;22.70;53.90;;;;;;5019328;28;20053;-51
2022/06/04 09:28:14;;;;;;;17.35;10.02;;;22.70;54.30;;;;;;5022016;28;20050;-54
2022/06/04 09:30:46;;;;;;;12.05;9.32;;;22.70;53.90;;;;;;5018260;28;20061;-50
2022/06/04 09:33:36;;;;;;;12.93;8.50;;;22.70;53.70;;;;;;5017513;28;20406;-48
2022/06/04 09:36:04;;;;;;;15.45;8.63;;;22.70;54.60;;;;;;5016760;28;20045;-52
2022/06/04 09:38:35;;;;;;;10.82;9.02;;;22.80;54.20;;;;;;5015874;28;20050;-51
2022/06/04 09:41:05;;;;;;;10.07;8.77;;;22.80;54.30;;;;;;5018784;28;20061;-49
2022/06/04 09:43:36;;;;;;;9.20;8.30;;;22.90;54.40;;;;;;5017150;28;20068;-51
2022/06/04 09:46:06;;;;;;;9.98;8.65;;;23.00;54.70;;;;;;5018833;28;20053;-49
2022/06/04 09:48:36;;;;;;;13.73;9.15;;;23.00;54.20;;;;;;5023349;28;20060;-50
2022/06/04 09:51:08;;;;;;;16.73;10.50;;;23.10;54.50;;;;;;5016361;28;20057;-50
2022/06/04 09:53:43;;;;;;;13.75;11.43;;;23.10;53.90;;;;;;5017439;28;20045;-47
2022/06/04 09:56:15;;;;;;;11.63;10.43;;;23.20;53.50;;;;;;5021992;28;20068;-52
2022/06/04 09:58:44;;;;;;;11.18;9.80;;;23.30;53.80;;;;;;5015148;28;20049;-51
2022/06/04 10:01:23;;;;;;;11.05;8.82;;;23.30;53.70;;;;;;5018756;28;20057;-51
2022/06/04 10:04:00;;;;;;;13.07;9.30;;;23.50;54.10;;;;;;5022157;28;20054;-49
2022/06/04 10:06:29;;;;;;;11.23;9.50;;;23.50;54.00;;;;;;5018604;28;20129;-48
2022/06/04 10:11:54;;;;;;;10.63;9.50;;;23.70;53.90;;;;;;5026864;28;20060;-50
2022/06/04 10:14:29;;;;;;;16.15;8.57;;;23.80;53.50;;;;;;5017612;28;20531;-50
2022/06/04 10:16:57;;;;;;;9.95;8.95;;;23.80;53.70;;;;;;5016829;28;20053;-49
2022/06/04 10:19:26;;;;;;;12.63;9.35;;;24.00;53.70;;;;;;5019501;28;20587;-47
2022/06/04 10:22:06;;;;;;;11.30;10.15;;;24.10;53.70;;;;;;5020100;28;20064;-49
2022/06/04 10:24:42;;;;;;;7.32;6.55;;;24.20;53.40;;;;;;5022969;28;20049;-47
2022/06/04 10:27:28;;;;;;;9.93;8.38;;;24.30;53.00;;;;;;5019249;28;20501;-50
2022/06/04 10:30:23;;;;;;;8.50;7.47;;;24.40;53.70;;;;;;5016854;28;20049;-55
2022/06/04 10:33:05;;;;;;;8.73;7.82;;;24.50;53.80;;;;;;5007010;28;20427;-48
2022/06/04 10:36:01;;;;;;;9.65;7.70;;;24.60;52.90;;;;;;5020539;28;20061;-53
2022/06/04 10:38:37;;;;;;;10.38;6.45;;;24.70;52.70;;;;;;5021943;28;20413;-50
2022/06/04 10:41:14;;;;;;;8.35;6.65;;;24.70;53.10;;;;;;5018883;28;20061;-51
2022/06/04 10:44:23;;;;;;;7.55;6.32;;;24.80;52.90;;;;;;5019637;28;20410;-49
2022/06/04 10:47:02;;;;;;;5.85;5.28;;;25.00;52.60;;;;;;4958167;28;20059;-52
2022/06/04 10:49:53;;;;;;;6.65;5.88;;;25.10;52.30;;;;;;4958840;28;20054;-53
2022/06/04 10:52:25;;;;;;;8.15;6.03;;;25.20;52.60;;;;;;4995154;28;20052;-53
2022/06/04 10:55:00;;;;;;;5.53;4.97;;;25.20;51.90;;;;;;5022109;28;20497;-53
2022/06/04 10:57:32;;;;;;;6.70;5.22;;;25.30;51.70;;;;;;5021419;28;20540;-54
2022/06/04 11:00:09;;;;;;;8.43;5.93;;;25.40;52.00;;;;;;5020612;28;20045;-51
2022/06/04 11:02:42;;;;;;;8.55;5.55;;;25.50;51.10;;;;;;5016214;28;20053;-49
2022/06/04 11:05:17;;;;;;;6.75;5.35;;;25.60;50.80;;;;;;5014979;28;20439;-52
2022/06/04 11:07:53;;;;;;;5.88;5.28;;;25.60;50.70;;;;;;5020796;28;20497;-49
2022/06/04 11:10:24;;;;;;;7.65;5.93;;;25.60;50.20;;;;;;5018657;28;20072;-52
2022/06/04 11:12:57;;;;;;;10.43;5.20;;;25.70;50.20;;;;;;5019010;28;20478;-52
2022/06/04 11:15:30;;;;;;;9.77;5.03;;;25.80;50.60;;;;;;5015492;28;20057;-51
2022/06/04 11:18:04;;;;;;;6.13;5.53;;;25.80;50.80;;;;;;5020835;28;20050;-51
2022/06/04 11:20:34;;;;;;;;;;;25.90;50.40;;;;;;5015421;28;20050;-52
2022/06/04 11:23:27;;;;;;;5.90;4.78;;;25.90;50.70;;;;;;5017214;28;19925;-51
2022/06/04 11:26:02;;;;;;;5.40;4.88;;;26.00;50.40;;;;;;5018309;28;20053;-49
2022/06/04 11:28:31;;;;;;;6.30;4.85;;;26.00;49.80;;;;;;5021271;28;20497;-51
2022/06/04 11:31:15;;;;;;;6.70;4.53;;;26.00;50.40;;;;;;5016760;28;20053;-50
2022/06/04 11:33:55;;;;;;;4.68;4.25;;;26.00;50.10;;;;;;5017463;28;20060;-53
2022/06/04 11:36:27;;;;;;;5.00;4.00;;;26.10;50.00;;;;;;5018331;28;20485;-53
2022/06/04 11:39:10;;;;;;;7.45;3.72;;;26.20;50.30;;;;;;5011743;28;20489;-49
2022/06/04 11:41:47;;;;;;;6.47;4.70;;;26.20;50.00;;;;;;5018851;28;20056;-49
2022/06/04 11:44:40;;;;;;;5.60;4.57;;;26.20;49.40;;;;;;5020690;28;20054;-54
2022/06/04 11:47:22;;;;;;;4.55;4.15;;;26.30;49.40;;;;;;5011012;28;20053;-49
2022/06/04 11:49:58;;;;;;;6.65;4.60;;;26.30;49.10;;;;;;5019772;28;20050;-55
2022/06/04 11:52:28;;;;;;;4.50;3.97;;;26.20;49.60;;;;;;5020131;28;20060;-52
2022/06/04 11:55:16;;;;;;;6.55;4.07;;;26.20;49.30;;;;;;5012835;28;20433;-50
2022/06/04 11:58:03;;;;;;;5.90;4.20;;;26.20;50.20;;;;;;5012060;28;20672;-53
2022/06/04 12:00:33;;;;;;;6.63;4.20;;;26.20;49.00;;;;;;5009626;28;20711;-50
2022/06/04 12:03:14;;;;;;;6.75;5.28;;;26.30;49.60;;;;;;5010301;28;20056;-47
2022/06/04 12:05:51;;;;;;;5.22;4.38;;;26.30;50.30;;;;;;5018848;28;20065;-51
2022/06/04 12:08:22;;;;;;;5.15;3.88;;;26.30;49.30;;;;;;5020290;28;20049;-51
2022/06/04 12:11:17;;;;;;;4.63;3.95;;;26.30;48.60;;;;;;5018346;28;20604;-56
2022/06/04 12:13:54;;;;;;;6.90;4.05;;;26.30;48.70;;;;;;5019538;28;20061;-51
2022/06/04 12:16:27;;;;;;;4.22;3.88;;;26.30;48.40;;;;;;5020799;28;20053;-49
2022/06/04 12:19:02;;;;;;;5.15;3.95;;;26.30;48.40;;;;;;5021298;28;20056;-50
2022/06/04 12:24:37;;;;;;;5.25;3.88;;;26.30;48.50;;;;;;5026635;28;20421;-50
2022/06/04 12:27:23;;;;;;;4.05;3.65;;;26.40;48.80;;;;;;5007620;28;20425;-48
2022/06/04 12:29:52;;;;;;;5.07;4.30;;;26.40;49.10;;;;;;5007114;28;20045;-48
2022/06/04 12:32:23;;;;;;;6.20;3.65;;;26.40;48.70;;;;;;5010178;28;20434;-51
2022/06/04 12:35:03;;;;;;;7.15;4.15;;;26.50;48.50;;;;;;5009972;28;20413;-56
2022/06/04 12:37:33;;;;;;;4.03;3.63;;;26.50;48.60;;;;;;5015007;28;20053;-51
2022/06/04 12:40:17;;;;;;;5.50;4.00;;;26.60;48.80;;;;;;5019628;28;20068;-52
2022/06/04 12:42:57;;;;;;;11.30;3.97;;;26.60;48.50;;;;;;5017445;28;20057;-49
2022/06/04 12:45:38;;;;;;;6.55;4.07;;;26.70;48.80;;;;;;5019985;28;20056;-48
2022/06/04 12:48:39;;;;;;;5.25;4.20;;;26.70;47.20;;;;;;5018653;28;20050;-52
2022/06/04 12:51:12;;;;;;;4.57;4.03;;;26.80;48.50;;;;;;5019246;28;20481;-54
2022/06/04 12:53:51;;;;;;;4.68;4.28;;;26.70;47.80;;;;;;5022552;28;20216;-47
2022/06/04 12:56:24;;;;;;;5.25;4.38;;;26.80;47.40;;;;;;5020775;28;20053;-50
2022/06/04 12:58:55;;;;;;;12.23;3.97;;;26.80;48.00;;;;;;5007841;28;20057;-53
2022/06/04 13:01:27;;;;;;;5.78;4.35;;;26.90;48.30;;;;;;5008470;28;21497;-50
2022/06/04 13:04:07;;;;;;;3.80;3.50;;;27.00;47.90;;;;;;5007263;28;20069;-50
2022/06/04 13:06:39;;;;;;;3.55;3.25;;;27.10;48.40;;;;;;5011197;28;20056;-54
2022/06/04 13:09:41;;;;;;;4.65;3.90;;;27.10;48.20;;;;;;5007883;28;20057;-52
2022/06/04 13:12:24;;;;;;;4.28;3.35;;;27.20;48.20;;;;;;5009454;28;20058;-51
2022/06/04 13:14:56;;;;;;;6.15;3.53;;;27.30;48.10;;;;;;5011524;28;20413;-52
2022/06/04 13:17:36;;;;;;;4.00;3.35;;;27.30;47.70;;;;;;5011043;28;20417;-51
2022/06/04 13:20:25;;;;;;;4.63;3.95;;;27.40;47.70;;;;;;5007809;28;20493;-49
2022/06/04 13:22:58;;;;;;;7.45;3.40;;;27.40;47.30;;;;;;4999665;28;20053;-52
2022/06/04 13:25:32;;;;;;;3.92;3.50;;;27.50;47.10;;;;;;5018568;28;20049;-50
2022/06/04 13:27:59;;;;;;;4.20;3.47;;;27.50;46.80;;;;;;5019154;28;20064;-51
2022/06/04 13:30:29;;;;;;;4.20;3.80;;;27.50;46.90;;;;;;5022280;28;20046;-53
2022/06/04 13:33:07;;;;;;;5.28;3.50;;;27.50;46.60;;;;;;5023219;28;20057;-52